Onion Creek, California Weather observations

Data are for observation ending at time listed.
 Day   Time    Ave.   Ave.  Ave.  Vector   Max.   Stn.    Total    Solar   Ave.   Snow 
  of    of     Air    Rel.  Wind   Wind    Wind   Baro.  Precip.   Rad.    Soil   Depth
Year   Day     Temp.  Hum.  Speed  Dir.    Gust   Pres.                    Temp.       
2017   (PST)    F      %     mph   deg.    mph     mb.     in.     W/m2     F      in. 
---------------------------------------------------------------------------------------  
  21   16:40   29.0    91    2.4   280      8.0   820.9   60.48       2    33.4   999.0
  21   16:50   28.8    92    2.9   268      8.0   821.0   60.48       1    33.4   999.0
  21   17:00   28.7    92    2.6   276      8.9   821.1   60.48       1    33.4   999.0
  21   17:10   28.5    92    3.1   286     11.6   821.1   60.48       0    33.4   999.0
  21   17:20   28.2    92    2.5   286      6.1   821.1   60.48       0    33.4   999.0
  21   17:30   28.1    92    3.5   276     11.5   821.2   60.48       0    33.4   999.0
  21   17:40   28.0    92    1.7   298      5.5   821.4   60.48       0    33.4   999.0
  21   17:50   28.0    93    2.6   280     11.3   821.3   60.44       0    33.4   999.0
  21   18:00   27.9    93    2.5   282      9.1   821.4   60.48       0    33.4   999.0
  21   18:10   27.8    93    3.3   263     11.5   821.5   60.48       0    33.4   999.0
  21   18:20   27.8    93    3.4   281      8.7   821.5   60.48       0    33.4   999.0
  21   18:30   27.7    93    2.9   287     13.2   821.6   60.48       0    33.4   999.0
  21   18:40   27.6    93    2.4   300      8.3   821.5   60.44       0    33.4   999.0
  21   18:50   27.6    93    2.4   275      8.0   821.4   60.48       0    33.4   999.0
  21   19:00   27.6    93    1.3   146      5.1   821.3   60.48       0    33.4   999.0
  21   19:10   27.6    93    0.3    55      1.8   821.3   60.48       0    33.4   999.0
  21   19:20   27.7    93    1.3   130      4.3   821.3   60.48       0    33.4   999.0
  21   19:30   27.7    93    0.5   353      2.2   821.2   60.48       0    33.4   999.0
  21   19:40   27.7    93    1.2   336      5.3   821.3   60.48       0    33.4   999.0
  21   19:50   27.8    93    0.5   358      1.6   821.5   60.48       0    33.4   999.0
  21   20:00   27.7    93    0.9    15      4.1   821.6   60.48       0    33.4   999.0
  21   20:10   27.7    93    1.6    23      4.6   821.5   60.48       0    33.4   999.0
  21   20:20   27.7    93    0.9   312      4.4   821.7   60.48       0    33.4   999.0
  21   20:30   27.7    93    0.4    30      3.5   821.6   60.48       0    33.4   999.0
  21   20:40   27.7    93    1.1   275      4.5   821.7   60.48       0    33.4   999.0
  21   20:50   27.7    93    0.3   317      3.1   821.6   60.48       0    33.4   999.0
  21   21:00   27.7    93    1.0   308      3.0   821.5   60.48       0    33.4   999.0
  21   21:10   27.7    93    0.5   324      2.5   821.4   60.48       0    33.4   999.0
  21   21:20   27.7    93    0.4   336      2.0   821.3   60.48       0    33.4   999.0
  21   21:30   27.7    93    0.3   338      1.2   821.5   60.48       0    33.4   999.0
  21   21:40   27.6    93    0.4     0      1.4   821.2   60.48       0    33.4   999.0
  21   21:50   27.7    93    0.1    12      1.0   821.3   60.48       0    33.4   999.0
  21   22:00   27.6    93    0.4    22      1.5   821.1   60.48       0    33.4   999.0
  21   22:10   27.6    93    1.2    11      5.4   820.8   60.48       0    33.4   999.0
  21   22:20   27.6    93    0.8     2      3.6   820.5   60.48       0    33.4   999.0
  21   22:30   27.6    93    0.3     4      2.0   820.3   60.52       0    33.4   999.0
  21   22:40   27.6    93    0.5     4      1.7   820.1   60.48       0    33.4   999.0
  21   22:50   27.5    93    0.3     9      1.4   820.0   60.48       0    33.4   999.0
  21   23:00   27.5    93    0.1    15      0.7   819.7   60.48       0    33.4   999.0
  21   23:10   27.5    93    0.2    15      1.0   819.7   60.48       0    33.4   999.0
  21   23:20   27.4    93    0.3    16      1.1   819.5   60.48       0    33.4   999.0
  21   23:30   27.4    93    0.8    13      2.9   819.6   60.48       0    33.4   999.0
  21   23:40   27.4    93    0.4    16      1.9   819.5   60.48       0    33.4   999.0
  21   23:50   27.4    93    1.7   353      8.1   819.4   60.52       0    33.4   999.0
  22    0:00   27.4    93    0.7   338      2.8   819.3   60.48       0    33.4   999.0
  22    0:10   27.4    93    0.8   318      2.9   819.2   60.48       0    33.4   999.0
  22    0:20   27.4    93    0.3   319      2.3   819.1   60.48       0    33.4   999.0
  22    0:30   27.4    93    0.5   339      3.1   818.9   60.52       0    33.4   999.0
  22    0:40   27.4    93    0.4   324      1.8   818.8   60.48       0    33.4   999.0
  22    0:50   27.4    93    0.8   300      4.2   818.7   60.48       0    33.4   999.0
  22    1:00   27.4    93    1.1   320      4.4   818.5   60.52       0    33.4   999.0
  22    1:10   27.4    93    0.7   315      2.3   818.2   60.52       0    33.4   999.0
  22    1:20   27.4    93    0.8   328      3.6   818.0   60.48       0    33.4   999.0
  22    1:30   27.4    93    0.5     6      1.7   817.7   60.52       0    33.4   999.0
  22    1:40   27.4    93    0.3     3      2.0   817.5   60.52       0    33.4   999.0
  22    1:50   27.4    93    0.5     3      1.0   817.4   60.52       0    33.4   999.0
  22    2:00   27.4    93    0.5    12      1.7   817.1   60.52       0    33.4   999.0
  22    2:10   27.4    93    0.5    20      2.3   817.1   60.52       0    33.4   999.0
  22    2:20   27.4    93    0.1    20      1.3   816.9   60.52       0    33.4   999.0
  22    2:30   27.4    93    0.3    23      1.8   816.6   60.48       0    33.4   999.0
  22    2:40   27.5    93    0.9   351      3.6   816.4   60.52       0    33.4   999.0
  22    2:50   27.4    93    1.5    20      6.5   816.1   60.52       0    33.4   999.0
  22    3:00   27.4    93    0.8   337      4.1   815.9   60.52       0    33.4   999.0
  22    3:10   27.5    93    1.4   316      5.1   815.7   60.52       0    33.4   999.0
  22    3:20   27.5    93    1.8   307      6.9   815.4   60.52       0    33.4   999.0
  22    3:30   27.5    94    1.6   308      5.1   815.2   60.48       0    33.4   999.0
  22    3:40   27.5    94    2.2   312      9.1   815.0   60.52       0    33.4   999.0
  22    3:50   27.4    94    3.5   290      9.0   814.6   60.52       0    33.4   999.0
  22    4:00   27.5    94    3.0   292      8.7   814.4   60.52       0    33.4   999.0
  22    4:10   27.7    95    3.7   289      8.4   814.2   60.52       0    33.4   999.0
  22    4:20   27.8    95    2.8   297      9.7   814.0   60.52       0    33.4   999.0
  22    4:30   28.0    95    3.2   276      8.2   813.9   60.52       0    33.4   999.0
  22    4:40   28.1    95    3.6   281     12.5   813.9   60.52       0    33.4   999.0
  22    4:50   28.2    96    3.0   287      6.9   813.7   60.52       0    33.4   999.0
  22    5:00   28.4    96    3.4   278      9.9   813.5   60.52       0    33.4   999.0
  22    5:10   28.6    96    4.4   272     13.6   813.4   60.52       0    33.4   999.0
  22    5:20   28.7    96    4.0   268      8.9   813.4   60.48       0    33.4   999.0
  22    5:30   29.0    96    5.3   267     21.4   813.4   60.48       0    33.4   999.0
  22    5:40   29.2    96    3.9   270     13.0   813.4   60.52       0    33.4   999.0
  22    5:50   29.4    96    5.5   266     19.4   813.5   60.48       0    33.4   999.0
  22    6:00   29.6    96    4.4   278     11.8   813.4   60.52       0    33.4   999.0
  22    6:10   29.7    96    5.0   276     13.1   813.4   60.48       0    33.4   999.0
  22    6:20   29.9    97    4.8   275     15.1   813.5   60.48       0    33.4   999.0
  22    6:30   30.0    97    3.5   280     14.4   813.5   60.48       0    33.4   999.0
  22    6:40   30.1    97    5.9   271     21.7   813.4   60.48       0    33.4   999.0
  22    6:50   30.1    97    5.8   261     25.2   813.4   60.48       0    33.4   999.0
  22    7:00   30.2    96    4.9   275     12.9   813.6   60.48       0    33.4   999.0
  22    7:10   30.2    96    4.8   261     10.5   813.7   60.48       0    33.4   999.0
  22    7:20   30.3    96    5.4   247     19.3   813.9   60.48       0    33.4   999.0
  22    7:30   30.3    96    3.8   278      8.0   813.9   60.48       0    33.4   999.0
  22    7:40   30.3    96    5.3   273     12.5   814.1   60.48       0    33.4   999.0
  22    7:50   30.2    96    5.2   286     15.2   814.4   60.48       1    33.5   999.0
  22    8:00   30.2    96    5.2   268     16.8   814.4   60.48       1    33.4   999.0
  22    8:10   30.2    96    5.5   262     14.1   814.6   60.48       1    33.5   999.0
  22    8:20   30.2    96    3.7   288     17.8   814.7   60.48       2    33.5   999.0
  22    8:30   30.2    96    4.7   277     22.2   814.8   60.48       2    33.4   999.0
  22    8:40   30.2    96    4.5   269     17.5   815.0   60.48       2    33.5   999.0
  22    8:50   30.1    96    4.0   269     12.9   815.2   60.44       2    33.5   999.0
  22    9:00   30.2    95    3.5   280      9.7   815.5   60.44       3    33.4   999.0
  22    9:10   30.1    95    4.1   274     11.4   815.7   60.48       3    33.4   999.0
  22    9:20   30.2    95    2.8   269      9.7   815.7   60.44       5    33.4   999.0
  22    9:30   30.2    95    2.9   290      8.1   815.9   60.48       5    33.4   999.0
  22    9:40   30.3    95    4.4   254     12.3   816.2   60.48       3    33.4   999.0
  22    9:50   30.3    95    4.1   263     11.6   816.3   60.48       4    33.5   999.0
  22   10:00   30.3    94    3.2   274     10.4   816.5   60.48       7    33.5   999.0
  22   10:10   30.3    94    5.3   261     14.0   816.8   60.44      11    33.5   999.0
  22   10:20   30.3    94    6.4   260     16.9   817.0   60.48       6    33.5   999.0
  22   10:30   30.2    94    4.7   249     12.9   817.1   60.48       7    33.4   999.0
  22   10:40   30.2    94    4.4   268     12.6   817.3   60.48       7    33.4   999.0
  22   10:50   30.2    93    3.9   256     16.9   817.2   60.44       8    33.4   999.0
  22   11:00   30.2    93    3.8   251     10.4   817.1   60.44       9    33.5   999.0
  22   11:10   30.3    93    5.5   258     13.7   817.1   60.44      21    33.4   999.0
  22   11:20   30.4    93    4.9   240     14.2   817.1   60.44      18    33.4   999.0
  22   11:30   30.5    92    3.7   264     10.2   817.0   60.44      16    33.5   999.0
  22   11:40   30.6    92    3.5   268     12.4   817.0   60.44      10    33.4   999.0
  22   11:50   30.6    92    3.1   254     10.8   816.8   60.44      16    33.5   999.0
  22   12:00   30.7    92    3.6   252      9.9   816.7   60.44      36    33.5   999.0
  22   12:10   31.0    92    3.4   280      9.2   816.5   60.40      27    33.4   999.0
  22   12:20   31.2    91    3.6   257      9.9   816.3   60.44      42    33.4   999.0
  22   12:30   31.6    92    2.6   273     10.9   816.1   60.44      39    33.4   999.0
  22   12:40   32.0    91    4.0   263      9.3   816.0   60.40      29    33.4   999.0
  22   12:50   32.1    90    4.0   256     15.9   815.9   60.40      20    33.4   999.0
  22   13:00   31.9    89    4.6   256     15.3   815.8   60.40      11    33.4   999.0
  22   13:10   31.7    89    3.6   237     10.2   815.7   60.40      16    33.4   999.0
  22   13:20   31.5    89    3.8   255     15.2   815.4   60.40      18    33.4   999.0
  22   13:30   31.4    90    2.2   256      5.8   815.2   60.40      15    33.4   999.0
  22   13:40   31.4    90    3.3   254      9.5   815.2   60.40       7    33.5   999.0
  22   13:50   31.2    90    2.5   270      8.6   815.1   60.40       4    33.5   999.0
  22   14:00   31.0    90    1.7   210      6.5   815.1   60.36       4    33.5   999.0
  22   14:10   30.8    90    1.5   299      7.0   815.2   60.36       3    33.5   999.0
  22   14:20   30.6    91    1.2   308      4.8   815.1   60.40       2    33.5   999.0
  22   14:30   30.4    91    0.4   347      2.0   814.9   60.40       3    33.5   999.0
  22   14:40   30.3    92    1.8   174      6.1   814.7   60.36       3    33.5   999.0
  22   14:50   30.1    91    1.7   258      6.2   814.5   60.40       3    33.5   999.0
  22   15:00   30.0    91    1.2   322      5.0   814.5   60.40       3    33.5   999.0
  22   15:10   29.9    91    1.0   314      4.2   814.3   60.36       2    33.5   999.0
  22   15:20   29.8    91    1.2   108      4.0   814.3   60.40       2    33.5   999.0
  22   15:30   29.8    92    0.7   227      3.1   814.1   60.40       2    33.5   999.0
  22   15:40   29.7    92    1.7   273      5.3   814.1   60.40       2    33.5   999.0
  22   15:50   29.6    92    0.4    87      2.3   813.9   60.40       2    33.4   999.0
  22   16:00   29.6    92    0.4   330      1.7   813.7   60.40       2    33.5   999.0
  22   16:10   29.5    92    0.3   324      2.9   813.5   60.40       1    33.5   999.0
  22   16:20   29.5    92    0.6   307      2.1   813.5   60.40       1    33.5   999.0
  22   16:30   29.5    92    1.2   144      7.2   813.4   60.40       0    33.4   999.0

Return to Onion Creek graphs page.


Western Regional Climate Center,wrcc@dri.edu